Thorhult, Minnesota
Current Conditions -  °F | °C
As of 4:14 PM on Monday 20 Oct 2014 (Local Time) from KVWU Reporting Station
Scattered Clouds Scattered Clouds  
Wind Chill: 48°   Ceiling: Unl
Heat Index: 48°   Visibility: 10mi
Dew Point: 39°   Wind: 0mph
Humidity: 71%   Direction: NA
Pressure: 30.05"   Gusts: NA
Location:  48.23°N, 95.25°W
Report Text: KVWU 202114Z AUTO 00000KT 10SM SCT022 09/04 A3005 RMK AO2
Loading
Personal Weather Stations






























Interactive Weather Map New forecast layout! Learn more

10-Day Weather Forecast

Advertisements
Track Severe Weather on mobile